sensor_id;sensor_type;location;lat;lon;timestamp;P1;durP1;ratioP1;P2;durP2;ratioP2
44925;SDS011;30662;51.210;7.656;2023-05-25T00:01:17;25.70;;;9.90;;
44925;SDS011;30662;51.210;7.656;2023-05-25T00:03:43;19.00;;;8.15;;
44925;SDS011;30662;51.210;7.656;2023-05-25T00:06:10;24.10;;;8.90;;
44925;SDS011;30662;51.210;7.656;2023-05-25T00:08:39;31.40;;;9.95;;
44925;SDS011;30662;51.210;7.656;2023-05-25T00:11:05;20.77;;;8.95;;
44925;SDS011;30662;51.210;7.656;2023-05-25T00:13:31;26.90;;;10.35;;
44925;SDS011;30662;51.210;7.656;2023-05-25T00:15:56;21.00;;;9.27;;
44925;SDS011;30662;51.210;7.656;2023-05-25T00:18:22;25.38;;;8.93;;
44925;SDS011;30662;51.210;7.656;2023-05-25T00:20:49;29.10;;;8.70;;
44925;SDS011;30662;51.210;7.656;2023-05-25T00:23:18;20.83;;;9.18;;
44925;SDS011;30662;51.210;7.656;2023-05-25T00:25:45;23.27;;;8.68;;
44925;SDS011;30662;51.210;7.656;2023-05-25T00:28:11;21.85;;;8.25;;
44925;SDS011;30662;51.210;7.656;2023-05-25T00:30:37;18.40;;;8.55;;
44925;SDS011;30662;51.210;7.656;2023-05-25T00:33:04;20.35;;;9.35;;
44925;SDS011;30662;51.210;7.656;2023-05-25T00:35:30;21.10;;;8.75;;
44925;SDS011;30662;51.210;7.656;2023-05-25T00:37:55;20.35;;;9.20;;
44925;SDS011;30662;51.210;7.656;2023-05-25T00:40:21;20.02;;;10.32;;
44925;SDS011;30662;51.210;7.656;2023-05-25T00:42:47;23.58;;;9.93;;
44925;SDS011;30662;51.210;7.656;2023-05-25T00:45:13;25.17;;;10.07;;
44925;SDS011;30662;51.210;7.656;2023-05-25T00:47:39;25.58;;;9.23;;
44925;SDS011;30662;51.210;7.656;2023-05-25T00:50:07;23.70;;;8.80;;
44925;SDS011;30662;51.210;7.656;2023-05-25T00:52:34;27.88;;;9.98;;
44925;SDS011;30662;51.210;7.656;2023-05-25T00:54:59;19.85;;;9.10;;
44925;SDS011;30662;51.210;7.656;2023-05-25T00:57:27;24.98;;;10.57;;
44925;SDS011;30662;51.210;7.656;2023-05-25T00:59:58;28.40;;;10.10;;
44925;SDS011;30662;51.210;7.656;2023-05-25T01:02:25;32.03;;;10.65;;
44925;SDS011;30662;51.210;7.656;2023-05-25T01:04:53;21.23;;;11.02;;
44925;SDS011;30662;51.210;7.656;2023-05-25T01:07:25;27.58;;;11.00;;
44925;SDS011;30662;51.210;7.656;2023-05-25T01:10:01;29.70;;;11.25;;
44925;SDS011;30662;51.210;7.656;2023-05-25T01:12:31;22.15;;;10.02;;
44925;SDS011;30662;51.210;7.656;2023-05-25T01:15:02;25.27;;;11.07;;
44925;SDS011;30662;51.210;7.656;2023-05-25T01:17:30;31.92;;;11.48;;
44925;SDS011;30662;51.210;7.656;2023-05-25T01:19:56;26.20;;;10.52;;
44925;SDS011;30662;51.210;7.656;2023-05-25T01:22:46;29.17;;;12.18;;
44925;SDS011;30662;51.210;7.656;2023-05-25T01:28:14;30.13;;;12.45;;
44925;SDS011;30662;51.210;7.656;2023-05-25T01:30:47;32.03;;;12.73;;
44925;SDS011;30662;51.210;7.656;2023-05-25T01:33:15;30.83;;;11.90;;
44925;SDS011;30662;51.210;7.656;2023-05-25T01:35:43;30.42;;;12.98;;
44925;SDS011;30662;51.210;7.656;2023-05-25T01:38:10;24.48;;;11.35;;
44925;SDS011;30662;51.210;7.656;2023-05-25T01:40:36;29.15;;;11.07;;
44925;SDS011;30662;51.210;7.656;2023-05-25T01:43:11;24.67;;;12.00;;
44925;SDS011;30662;51.210;7.656;2023-05-25T01:45:37;22.17;;;12.23;;
44925;SDS011;30662;51.210;7.656;2023-05-25T01:50:53;25.25;;;12.80;;
44925;SDS011;30662;51.210;7.656;2023-05-25T01:53:27;20.80;;;10.88;;
44925;SDS011;30662;51.210;7.656;2023-05-25T01:55:59;22.10;;;10.82;;
44925;SDS011;30662;51.210;7.656;2023-05-25T01:58:31;25.30;;;12.15;;
44925;SDS011;30662;51.210;7.656;2023-05-25T02:01:00;28.58;;;12.52;;
44925;SDS011;30662;51.210;7.656;2023-05-25T02:03:26;25.90;;;12.00;;
44925;SDS011;30662;51.210;7.656;2023-05-25T02:05:52;29.33;;;12.85;;
44925;SDS011;30662;51.210;7.656;2023-05-25T02:08:18;29.27;;;13.15;;
44925;SDS011;30662;51.210;7.656;2023-05-25T02:10:45;28.45;;;12.80;;
44925;SDS011;30662;51.210;7.656;2023-05-25T02:13:11;26.25;;;14.43;;
44925;SDS011;30662;51.210;7.656;2023-05-25T02:15:38;32.75;;;14.10;;
44925;SDS011;30662;51.210;7.656;2023-05-25T02:18:04;31.50;;;12.80;;
44925;SDS011;30662;51.210;7.656;2023-05-25T02:20:30;26.58;;;13.23;;
44925;SDS011;30662;51.210;7.656;2023-05-25T02:22:56;31.02;;;14.00;;
44925;SDS011;30662;51.210;7.656;2023-05-25T02:25:22;26.80;;;13.55;;
44925;SDS011;30662;51.210;7.656;2023-05-25T02:27:49;28.70;;;13.18;;
44925;SDS011;30662;51.210;7.656;2023-05-25T02:30:15;25.20;;;13.57;;
44925;SDS011;30662;51.210;7.656;2023-05-25T02:32:41;30.58;;;13.85;;
44925;SDS011;30662;51.210;7.656;2023-05-25T02:35:07;29.42;;;12.82;;
44925;SDS011;30662;51.210;7.656;2023-05-25T02:37:33;33.97;;;13.70;;
44925;SDS011;30662;51.210;7.656;2023-05-25T02:39:59;29.42;;;13.27;;
44925;SDS011;30662;51.210;7.656;2023-05-25T02:42:25;26.80;;;14.00;;
44925;SDS011;30662;51.210;7.656;2023-05-25T02:44:50;26.75;;;13.52;;
44925;SDS011;30662;51.210;7.656;2023-05-25T02:47:17;33.25;;;15.93;;
44925;SDS011;30662;51.210;7.656;2023-05-25T02:49:46;34.33;;;15.07;;
44925;SDS011;30662;51.210;7.656;2023-05-25T02:52:12;33.33;;;14.55;;
44925;SDS011;30662;51.210;7.656;2023-05-25T02:54:38;36.03;;;14.40;;
44925;SDS011;30662;51.210;7.656;2023-05-25T02:57:04;31.27;;;13.70;;
44925;SDS011;30662;51.210;7.656;2023-05-25T02:59:30;29.20;;;13.38;;
44925;SDS011;30662;51.210;7.656;2023-05-25T03:01:59;36.75;;;14.38;;
44925;SDS011;30662;51.210;7.656;2023-05-25T03:04:25;26.55;;;13.70;;
44925;SDS011;30662;51.210;7.656;2023-05-25T03:06:51;24.42;;;12.30;;
44925;SDS011;30662;51.210;7.656;2023-05-25T03:09:17;27.55;;;13.60;;
44925;SDS011;30662;51.210;7.656;2023-05-25T03:11:43;27.45;;;12.93;;
44925;SDS011;30662;51.210;7.656;2023-05-25T03:14:09;32.65;;;13.13;;
44925;SDS011;30662;51.210;7.656;2023-05-25T03:16:35;23.27;;;11.82;;
44925;SDS011;30662;51.210;7.656;2023-05-25T03:19:03;34.17;;;13.00;;
44925;SDS011;30662;51.210;7.656;2023-05-25T03:21:30;28.95;;;11.98;;
44925;SDS011;30662;51.210;7.656;2023-05-25T03:23:57;29.38;;;13.98;;
44925;SDS011;30662;51.210;7.656;2023-05-25T03:26:24;29.20;;;13.50;;
44925;SDS011;30662;51.210;7.656;2023-05-25T03:28:50;29.15;;;14.45;;
44925;SDS011;30662;51.210;7.656;2023-05-25T03:31:17;30.70;;;14.63;;
44925;SDS011;30662;51.210;7.656;2023-05-25T03:33:43;33.72;;;14.52;;
44925;SDS011;30662;51.210;7.656;2023-05-25T03:36:09;27.23;;;16.17;;
44925;SDS011;30662;51.210;7.656;2023-05-25T03:38:36;35.97;;;15.55;;
44925;SDS011;30662;51.210;7.656;2023-05-25T03:41:03;33.47;;;14.90;;
44925;SDS011;30662;51.210;7.656;2023-05-25T03:43:29;35.70;;;16.23;;
44925;SDS011;30662;51.210;7.656;2023-05-25T03:45:55;30.73;;;15.82;;
44925;SDS011;30662;51.210;7.656;2023-05-25T03:48:21;39.30;;;16.38;;
44925;SDS011;30662;51.210;7.656;2023-05-25T03:50:47;34.97;;;13.95;;
44925;SDS011;30662;51.210;7.656;2023-05-25T03:53:13;29.60;;;15.25;;
44925;SDS011;30662;51.210;7.656;2023-05-25T03:55:39;38.67;;;15.43;;
44925;SDS011;30662;51.210;7.656;2023-05-25T03:58:06;32.25;;;13.82;;
44925;SDS011;30662;51.210;7.656;2023-05-25T04:00:34;28.52;;;14.00;;
44925;SDS011;30662;51.210;7.656;2023-05-25T04:03:01;22.48;;;13.38;;
44925;SDS011;30662;51.210;7.656;2023-05-25T04:05:27;35.10;;;14.27;;
44925;SDS011;30662;51.210;7.656;2023-05-25T04:07:53;32.20;;;14.30;;
44925;SDS011;30662;51.210;7.656;2023-05-25T04:10:20;26.25;;;13.90;;
44925;SDS011;30662;51.210;7.656;2023-05-25T04:12:46;29.17;;;13.98;;
44925;SDS011;30662;51.210;7.656;2023-05-25T04:15:12;38.08;;;14.57;;
44925;SDS011;30662;51.210;7.656;2023-05-25T04:17:39;29.92;;;14.43;;
44925;SDS011;30662;51.210;7.656;2023-05-25T04:20:08;32.95;;;15.55;;
44925;SDS011;30662;51.210;7.656;2023-05-25T04:22:35;34.08;;;14.70;;
44925;SDS011;30662;51.210;7.656;2023-05-25T04:25:06;28.83;;;14.30;;
44925;SDS011;30662;51.210;7.656;2023-05-25T04:27:32;30.27;;;13.75;;
44925;SDS011;30662;51.210;7.656;2023-05-25T04:29:58;27.95;;;15.00;;
44925;SDS011;30662;51.210;7.656;2023-05-25T04:32:25;36.13;;;14.50;;
44925;SDS011;30662;51.210;7.656;2023-05-25T04:34:54;29.10;;;13.60;;
44925;SDS011;30662;51.210;7.656;2023-05-25T04:37:21;29.52;;;13.75;;
44925;SDS011;30662;51.210;7.656;2023-05-25T04:39:48;28.10;;;13.88;;
44925;SDS011;30662;51.210;7.656;2023-05-25T04:42:14;34.63;;;14.00;;
44925;SDS011;30662;51.210;7.656;2023-05-25T04:44:41;32.42;;;14.88;;
44925;SDS011;30662;51.210;7.656;2023-05-25T04:47:07;31.65;;;13.10;;
44925;SDS011;30662;51.210;7.656;2023-05-25T04:49:34;27.65;;;13.40;;
44925;SDS011;30662;51.210;7.656;2023-05-25T04:51:59;32.30;;;12.77;;
44925;SDS011;30662;51.210;7.656;2023-05-25T04:54:25;27.77;;;13.60;;
44925;SDS011;30662;51.210;7.656;2023-05-25T04:56:51;28.75;;;13.10;;
44925;SDS011;30662;51.210;7.656;2023-05-25T04:59:17;37.20;;;14.00;;
44925;SDS011;30662;51.210;7.656;2023-05-25T05:01:43;32.72;;;13.40;;
44925;SDS011;30662;51.210;7.656;2023-05-25T05:04:10;34.00;;;14.27;;
44925;SDS011;30662;51.210;7.656;2023-05-25T05:06:36;32.60;;;13.63;;
44925;SDS011;30662;51.210;7.656;2023-05-25T05:09:03;30.48;;;12.93;;
44925;SDS011;30662;51.210;7.656;2023-05-25T05:11:29;31.17;;;13.93;;
44925;SDS011;30662;51.210;7.656;2023-05-25T05:13:55;35.22;;;13.77;;
44925;SDS011;30662;51.210;7.656;2023-05-25T05:16:21;35.20;;;12.98;;
44925;SDS011;30662;51.210;7.656;2023-05-25T05:18:47;31.92;;;14.15;;
44925;SDS011;30662;51.210;7.656;2023-05-25T05:21:13;27.63;;;14.00;;
44925;SDS011;30662;51.210;7.656;2023-05-25T05:23:41;33.40;;;14.48;;
44925;SDS011;30662;51.210;7.656;2023-05-25T05:26:07;32.25;;;14.30;;
44925;SDS011;30662;51.210;7.656;2023-05-25T05:28:36;37.95;;;15.10;;
44925;SDS011;30662;51.210;7.656;2023-05-25T05:31:02;30.83;;;14.52;;
44925;SDS011;30662;51.210;7.656;2023-05-25T05:33:28;29.40;;;13.45;;
44925;SDS011;30662;51.210;7.656;2023-05-25T05:35:54;27.00;;;13.95;;
44925;SDS011;30662;51.210;7.656;2023-05-25T05:38:20;31.50;;;13.35;;
44925;SDS011;30662;51.210;7.656;2023-05-25T05:40:46;25.80;;;12.45;;
44925;SDS011;30662;51.210;7.656;2023-05-25T05:43:12;29.88;;;14.05;;
44925;SDS011;30662;51.210;7.656;2023-05-25T05:45:39;32.00;;;14.18;;
44925;SDS011;30662;51.210;7.656;2023-05-25T05:48:09;23.77;;;13.00;;
44925;SDS011;30662;51.210;7.656;2023-05-25T05:50:36;30.48;;;13.45;;
44925;SDS011;30662;51.210;7.656;2023-05-25T05:53:04;30.95;;;14.50;;
44925;SDS011;30662;51.210;7.656;2023-05-25T05:55:31;31.10;;;13.75;;
44925;SDS011;30662;51.210;7.656;2023-05-25T05:57:57;23.02;;;12.75;;
44925;SDS011;30662;51.210;7.656;2023-05-25T06:00:23;27.75;;;12.75;;
44925;SDS011;30662;51.210;7.656;2023-05-25T06:02:49;22.48;;;12.27;;
44925;SDS011;30662;51.210;7.656;2023-05-25T06:05:16;28.33;;;12.82;;
44925;SDS011;30662;51.210;7.656;2023-05-25T06:07:42;35.60;;;13.13;;
44925;SDS011;30662;51.210;7.656;2023-05-25T06:10:08;32.85;;;13.95;;
44925;SDS011;30662;51.210;7.656;2023-05-25T06:12:34;30.90;;;12.52;;
44925;SDS011;30662;51.210;7.656;2023-05-25T06:15:00;28.90;;;12.15;;
44925;SDS011;30662;51.210;7.656;2023-05-25T06:17:26;30.25;;;13.35;;
44925;SDS011;30662;51.210;7.656;2023-05-25T06:19:54;33.35;;;12.65;;
44925;SDS011;30662;51.210;7.656;2023-05-25T06:22:20;29.73;;;12.30;;
44925;SDS011;30662;51.210;7.656;2023-05-25T06:24:48;28.08;;;14.50;;
44925;SDS011;30662;51.210;7.656;2023-05-25T06:27:14;26.13;;;11.52;;
44925;SDS011;30662;51.210;7.656;2023-05-25T06:29:41;25.77;;;11.43;;
44925;SDS011;30662;51.210;7.656;2023-05-25T06:32:07;27.58;;;12.88;;
44925;SDS011;30662;51.210;7.656;2023-05-25T06:34:35;25.95;;;12.68;;
44925;SDS011;30662;51.210;7.656;2023-05-25T06:37:03;29.25;;;13.88;;
44925;SDS011;30662;51.210;7.656;2023-05-25T06:39:32;31.67;;;14.02;;
44925;SDS011;30662;51.210;7.656;2023-05-25T06:41:58;27.98;;;12.23;;
44925;SDS011;30662;51.210;7.656;2023-05-25T06:44:24;26.20;;;14.20;;
44925;SDS011;30662;51.210;7.656;2023-05-25T06:46:50;28.00;;;14.90;;
44925;SDS011;30662;51.210;7.656;2023-05-25T06:49:16;23.60;;;13.32;;
44925;SDS011;30662;51.210;7.656;2023-05-25T06:51:42;28.23;;;12.95;;
44925;SDS011;30662;51.210;7.656;2023-05-25T06:54:08;27.90;;;12.60;;
44925;SDS011;30662;51.210;7.656;2023-05-25T06:56:37;24.48;;;12.27;;
44925;SDS011;30662;51.210;7.656;2023-05-25T06:59:03;21.77;;;11.50;;
44925;SDS011;30662;51.210;7.656;2023-05-25T07:01:29;25.05;;;12.05;;
44925;SDS011;30662;51.210;7.656;2023-05-25T07:03:55;26.98;;;12.23;;
44925;SDS011;30662;51.210;7.656;2023-05-25T07:06:21;21.00;;;11.50;;
44925;SDS011;30662;51.210;7.656;2023-05-25T07:08:46;21.00;;;11.48;;
44925;SDS011;30662;51.210;7.656;2023-05-25T07:11:12;22.23;;;11.43;;
44925;SDS011;30662;51.210;7.656;2023-05-25T07:13:39;21.42;;;12.35;;
44925;SDS011;30662;51.210;7.656;2023-05-25T07:16:05;22.45;;;11.40;;
44925;SDS011;30662;51.210;7.656;2023-05-25T07:18:31;23.80;;;11.98;;
44925;SDS011;30662;51.210;7.656;2023-05-25T07:20:57;22.60;;;11.40;;
44925;SDS011;30662;51.210;7.656;2023-05-25T07:23:22;24.38;;;10.90;;
44925;SDS011;30662;51.210;7.656;2023-05-25T07:25:49;21.67;;;10.85;;
44925;SDS011;30662;51.210;7.656;2023-05-25T07:28:14;22.73;;;10.13;;
44925;SDS011;30662;51.210;7.656;2023-05-25T07:30:40;19.77;;;10.15;;
44925;SDS011;30662;51.210;7.656;2023-05-25T07:33:06;19.75;;;11.65;;
44925;SDS011;30662;51.210;7.656;2023-05-25T07:35:32;24.92;;;10.20;;
44925;SDS011;30662;51.210;7.656;2023-05-25T07:38:00;20.23;;;10.30;;
44925;SDS011;30662;51.210;7.656;2023-05-25T07:40:28;18.65;;;10.32;;
44925;SDS011;30662;51.210;7.656;2023-05-25T07:42:54;19.58;;;11.18;;
44925;SDS011;30662;51.210;7.656;2023-05-25T07:45:21;21.65;;;11.75;;
44925;SDS011;30662;51.210;7.656;2023-05-25T07:47:47;20.85;;;10.45;;
44925;SDS011;30662;51.210;7.656;2023-05-25T07:50:13;20.60;;;10.13;;
44925;SDS011;30662;51.210;7.656;2023-05-25T07:52:40;27.58;;;11.20;;
44925;SDS011;30662;51.210;7.656;2023-05-25T07:55:06;21.55;;;11.20;;
44925;SDS011;30662;51.210;7.656;2023-05-25T07:57:33;20.85;;;10.18;;
44925;SDS011;30662;51.210;7.656;2023-05-25T07:59:59;18.17;;;10.52;;
44925;SDS011;30662;51.210;7.656;2023-05-25T08:02:25;19.77;;;10.30;;
44925;SDS011;30662;51.210;7.656;2023-05-25T08:04:51;16.52;;;9.05;;
44925;SDS011;30662;51.210;7.656;2023-05-25T08:07:18;21.05;;;10.02;;
44925;SDS011;30662;51.210;7.656;2023-05-25T08:09:45;18.13;;;9.48;;
44925;SDS011;30662;51.210;7.656;2023-05-25T08:12:11;14.35;;;8.73;;
44925;SDS011;30662;51.210;7.656;2023-05-25T08:19:48;18.00;;;10.20;;
44925;SDS011;30662;51.210;7.656;2023-05-25T08:22:14;20.15;;;9.80;;
44925;SDS011;30662;51.210;7.656;2023-05-25T08:24:40;18.90;;;9.45;;
44925;SDS011;30662;51.210;7.656;2023-05-25T08:27:06;17.35;;;10.07;;
44925;SDS011;30662;51.210;7.656;2023-05-25T08:29:32;20.17;;;9.32;;
44925;SDS011;30662;51.210;7.656;2023-05-25T08:31:57;14.65;;;9.20;;
44925;SDS011;30662;51.210;7.656;2023-05-25T08:34:23;19.58;;;9.10;;
44925;SDS011;30662;51.210;7.656;2023-05-25T08:36:49;16.85;;;9.27;;
44925;SDS011;30662;51.210;7.656;2023-05-25T08:39:15;17.48;;;7.75;;
44925;SDS011;30662;51.210;7.656;2023-05-25T08:41:44;13.88;;;8.65;;
44925;SDS011;30662;51.210;7.656;2023-05-25T08:44:10;12.80;;;8.05;;
44925;SDS011;30662;51.210;7.656;2023-05-25T08:46:38;13.32;;;7.53;;
44925;SDS011;30662;51.210;7.656;2023-05-25T08:49:10;17.85;;;8.30;;
44925;SDS011;30662;51.210;7.656;2023-05-25T08:51:40;12.30;;;7.85;;
44925;SDS011;30662;51.210;7.656;2023-05-25T08:54:09;15.50;;;7.90;;
44925;SDS011;30662;51.210;7.656;2023-05-25T08:56:50;17.15;;;8.90;;
44925;SDS011;30662;51.210;7.656;2023-05-25T09:01:52;16.90;;;8.60;;
44925;SDS011;30662;51.210;7.656;2023-05-25T09:04:23;17.15;;;9.55;;
44925;SDS011;30662;51.210;7.656;2023-05-25T09:06:50;16.23;;;9.57;;
44925;SDS011;30662;51.210;7.656;2023-05-25T09:09:35;16.85;;;10.40;;
44925;SDS011;30662;51.210;7.656;2023-05-25T09:12:03;17.15;;;9.23;;
44925;SDS011;30662;51.210;7.656;2023-05-25T09:14:31;17.02;;;8.95;;
44925;SDS011;30662;51.210;7.656;2023-05-25T09:16:58;18.98;;;8.82;;
44925;SDS011;30662;51.210;7.656;2023-05-25T09:19:25;14.85;;;8.57;;
44925;SDS011;30662;51.210;7.656;2023-05-25T09:21:51;19.88;;;8.52;;
44925;SDS011;30662;51.210;7.656;2023-05-25T09:24:28;12.13;;;7.97;;
44925;SDS011;30662;51.210;7.656;2023-05-25T09:26:55;13.05;;;7.38;;
44925;SDS011;30662;51.210;7.656;2023-05-25T09:29:21;14.75;;;8.20;;
44925;SDS011;30662;51.210;7.656;2023-05-25T09:31:47;13.32;;;7.50;;
44925;SDS011;30662;51.210;7.656;2023-05-25T09:34:13;15.32;;;8.35;;
44925;SDS011;30662;51.210;7.656;2023-05-25T09:36:40;14.93;;;8.07;;
44925;SDS011;30662;51.210;7.656;2023-05-25T09:39:08;14.80;;;7.70;;
44925;SDS011;30662;51.210;7.656;2023-05-25T09:41:36;14.55;;;6.50;;
44925;SDS011;30662;51.210;7.656;2023-05-25T09:44:08;14.48;;;8.13;;
44925;SDS011;30662;51.210;7.656;2023-05-25T09:46:37;10.93;;;6.65;;
44925;SDS011;30662;51.210;7.656;2023-05-25T09:49:05;9.85;;;7.15;;
44925;SDS011;30662;51.210;7.656;2023-05-25T09:51:36;12.73;;;7.75;;
44925;SDS011;30662;51.210;7.656;2023-05-25T09:54:03;14.27;;;8.45;;
44925;SDS011;30662;51.210;7.656;2023-05-25T09:56:31;16.55;;;8.68;;
44925;SDS011;30662;51.210;7.656;2023-05-25T09:58:57;17.25;;;8.35;;
44925;SDS011;30662;51.210;7.656;2023-05-25T10:01:24;13.88;;;8.10;;
44925;SDS011;30662;51.210;7.656;2023-05-25T10:03:50;16.10;;;7.80;;
44925;SDS011;30662;51.210;7.656;2023-05-25T10:06:30;14.70;;;7.95;;
44925;SDS011;30662;51.210;7.656;2023-05-25T10:08:57;16.42;;;8.65;;
44925;SDS011;30662;51.210;7.656;2023-05-25T10:11:26;12.65;;;8.57;;
44925;SDS011;30662;51.210;7.656;2023-05-25T10:13:54;11.95;;;7.47;;
44925;SDS011;30662;51.210;7.656;2023-05-25T10:16:26;17.13;;;7.82;;
44925;SDS011;30662;51.210;7.656;2023-05-25T10:18:57;11.82;;;7.15;;
44925;SDS011;30662;51.210;7.656;2023-05-25T10:21:29;15.70;;;8.50;;
44925;SDS011;30662;51.210;7.656;2023-05-25T10:24:02;13.05;;;7.95;;
44925;SDS011;30662;51.210;7.656;2023-05-25T10:26:32;13.52;;;8.25;;
44925;SDS011;30662;51.210;7.656;2023-05-25T10:29:01;17.02;;;8.40;;
44925;SDS011;30662;51.210;7.656;2023-05-25T10:31:31;16.52;;;8.95;;
44925;SDS011;30662;51.210;7.656;2023-05-25T10:34:02;15.20;;;8.15;;
44925;SDS011;30662;51.210;7.656;2023-05-25T10:36:28;16.38;;;8.13;;
44925;SDS011;30662;51.210;7.656;2023-05-25T10:38:55;13.25;;;7.70;;
44925;SDS011;30662;51.210;7.656;2023-05-25T10:41:22;12.32;;;7.78;;
44925;SDS011;30662;51.210;7.656;2023-05-25T10:43:48;13.88;;;7.93;;
44925;SDS011;30662;51.210;7.656;2023-05-25T10:46:15;12.18;;;7.30;;
44925;SDS011;30662;51.210;7.656;2023-05-25T10:48:45;13.88;;;7.55;;
44925;SDS011;30662;51.210;7.656;2023-05-25T10:51:19;14.50;;;6.60;;
44925;SDS011;30662;51.210;7.656;2023-05-25T10:53:45;11.13;;;6.63;;
44925;SDS011;30662;51.210;7.656;2023-05-25T10:56:18;9.65;;;6.53;;
44925;SDS011;30662;51.210;7.656;2023-05-25T10:58:44;16.08;;;7.32;;
44925;SDS011;30662;51.210;7.656;2023-05-25T11:01:11;11.52;;;6.68;;
44925;SDS011;30662;51.210;7.656;2023-05-25T11:09:02;12.52;;;6.88;;
44925;SDS011;30662;51.210;7.656;2023-05-25T11:17:12;12.63;;;7.13;;
44925;SDS011;30662;51.210;7.656;2023-05-25T11:19:42;13.32;;;7.22;;
44925;SDS011;30662;51.210;7.656;2023-05-25T11:22:22;13.98;;;7.20;;
44925;SDS011;30662;51.210;7.656;2023-05-25T11:24:56;18.63;;;8.00;;
44925;SDS011;30662;51.210;7.656;2023-05-25T11:27:31;13.93;;;7.10;;
44925;SDS011;30662;51.210;7.656;2023-05-25T11:29:58;14.73;;;7.43;;
44925;SDS011;30662;51.210;7.656;2023-05-25T11:32:25;13.45;;;7.55;;
44925;SDS011;30662;51.210;7.656;2023-05-25T11:34:51;13.30;;;7.68;;
44925;SDS011;30662;51.210;7.656;2023-05-25T11:37:20;14.15;;;7.50;;
44925;SDS011;30662;51.210;7.656;2023-05-25T11:39:49;12.13;;;6.82;;
44925;SDS011;30662;51.210;7.656;2023-05-25T11:42:16;14.60;;;7.63;;
44925;SDS011;30662;51.210;7.656;2023-05-25T11:44:45;15.60;;;7.88;;
44925;SDS011;30662;51.210;7.656;2023-05-25T11:47:11;15.40;;;7.60;;
44925;SDS011;30662;51.210;7.656;2023-05-25T11:52:11;14.07;;;7.57;;
44925;SDS011;30662;51.210;7.656;2023-05-25T11:54:37;13.68;;;7.93;;
44925;SDS011;30662;51.210;7.656;2023-05-25T11:57:19;12.70;;;7.18;;
44925;SDS011;30662;51.210;7.656;2023-05-25T11:59:56;15.15;;;7.35;;
44925;SDS011;30662;51.210;7.656;2023-05-25T12:02:26;13.57;;;8.60;;
44925;SDS011;30662;51.210;7.656;2023-05-25T12:04:56;10.75;;;7.45;;
44925;SDS011;30662;51.210;7.656;2023-05-25T12:07:23;9.13;;;7.00;;
44925;SDS011;30662;51.210;7.656;2023-05-25T12:09:51;13.38;;;6.78;;
44925;SDS011;30662;51.210;7.656;2023-05-25T12:12:17;12.05;;;7.25;;
44925;SDS011;30662;51.210;7.656;2023-05-25T12:14:47;14.25;;;7.45;;
44925;SDS011;30662;51.210;7.656;2023-05-25T12:17:14;15.43;;;7.40;;
44925;SDS011;30662;51.210;7.656;2023-05-25T12:19:41;11.30;;;7.15;;
44925;SDS011;30662;51.210;7.656;2023-05-25T12:22:08;9.80;;;6.18;;
44925;SDS011;30662;51.210;7.656;2023-05-25T12:24:34;13.35;;;7.00;;
44925;SDS011;30662;51.210;7.656;2023-05-25T12:27:00;11.02;;;7.75;;
44925;SDS011;30662;51.210;7.656;2023-05-25T12:29:29;11.27;;;7.32;;
44925;SDS011;30662;51.210;7.656;2023-05-25T12:32:03;12.98;;;7.25;;
44925;SDS011;30662;51.210;7.656;2023-05-25T12:34:31;13.35;;;7.95;;
44925;SDS011;30662;51.210;7.656;2023-05-25T12:36:56;11.00;;;7.13;;
44925;SDS011;30662;51.210;7.656;2023-05-25T12:41:50;11.98;;;8.57;;
44925;SDS011;30662;51.210;7.656;2023-05-25T12:44:21;12.45;;;7.70;;
44925;SDS011;30662;51.210;7.656;2023-05-25T12:46:49;11.50;;;7.45;;
44925;SDS011;30662;51.210;7.656;2023-05-25T12:52:01;14.88;;;7.72;;
44925;SDS011;30662;51.210;7.656;2023-05-25T12:54:43;13.35;;;8.57;;
44925;SDS011;30662;51.210;7.656;2023-05-25T12:57:16;12.13;;;8.25;;
44925;SDS011;30662;51.210;7.656;2023-05-25T12:59:43;10.93;;;8.18;;
44925;SDS011;30662;51.210;7.656;2023-05-25T13:02:11;11.88;;;8.13;;
44925;SDS011;30662;51.210;7.656;2023-05-25T13:04:38;13.10;;;8.80;;
44925;SDS011;30662;51.210;7.656;2023-05-25T13:07:08;13.57;;;9.00;;
44925;SDS011;30662;51.210;7.656;2023-05-25T13:09:34;15.50;;;9.45;;
44925;SDS011;30662;51.210;7.656;2023-05-25T13:12:01;15.95;;;8.70;;
44925;SDS011;30662;51.210;7.656;2023-05-25T13:14:28;12.32;;;8.25;;
44925;SDS011;30662;51.210;7.656;2023-05-25T13:16:54;12.60;;;7.75;;
44925;SDS011;30662;51.210;7.656;2023-05-25T13:19:21;15.30;;;8.40;;
44925;SDS011;30662;51.210;7.656;2023-05-25T13:21:49;14.90;;;7.63;;
44925;SDS011;30662;51.210;7.656;2023-05-25T13:24:16;9.30;;;7.53;;
44925;SDS011;30662;51.210;7.656;2023-05-25T13:26:44;11.18;;;7.65;;
44925;SDS011;30662;51.210;7.656;2023-05-25T13:29:14;12.57;;;7.65;;
44925;SDS011;30662;51.210;7.656;2023-05-25T13:31:40;11.68;;;7.20;;
44925;SDS011;30662;51.210;7.656;2023-05-25T13:34:07;13.77;;;7.65;;
44925;SDS011;30662;51.210;7.656;2023-05-25T13:36:33;11.40;;;7.65;;
44925;SDS011;30662;51.210;7.656;2023-05-25T13:39:01;13.57;;;8.27;;
44925;SDS011;30662;51.210;7.656;2023-05-25T13:41:27;10.23;;;7.05;;
44925;SDS011;30662;51.210;7.656;2023-05-25T13:43:53;11.27;;;7.70;;
44925;SDS011;30662;51.210;7.656;2023-05-25T13:46:19;11.40;;;7.30;;
44925;SDS011;30662;51.210;7.656;2023-05-25T13:48:59;13.05;;;7.88;;
44925;SDS011;30662;51.210;7.656;2023-05-25T13:51:25;11.90;;;7.20;;
44925;SDS011;30662;51.210;7.656;2023-05-25T13:53:51;12.15;;;7.22;;
44925;SDS011;30662;51.210;7.656;2023-05-25T13:56:17;12.02;;;7.53;;
44925;SDS011;30662;51.210;7.656;2023-05-25T13:58:43;12.45;;;7.90;;
44925;SDS011;30662;51.210;7.656;2023-05-25T14:01:09;12.00;;;8.07;;
44925;SDS011;30662;51.210;7.656;2023-05-25T14:03:36;13.93;;;8.20;;
44925;SDS011;30662;51.210;7.656;2023-05-25T14:06:03;11.98;;;7.53;;
44925;SDS011;30662;51.210;7.656;2023-05-25T14:08:30;13.73;;;7.60;;
44925;SDS011;30662;51.210;7.656;2023-05-25T14:10:55;13.55;;;7.63;;
44925;SDS011;30662;51.210;7.656;2023-05-25T14:13:21;13.38;;;7.25;;
44925;SDS011;30662;51.210;7.656;2023-05-25T14:15:47;10.85;;;7.30;;
44925;SDS011;30662;51.210;7.656;2023-05-25T14:18:13;12.65;;;7.90;;
44925;SDS011;30662;51.210;7.656;2023-05-25T14:20:40;9.35;;;6.82;;
44925;SDS011;30662;51.210;7.656;2023-05-25T14:23:07;15.38;;;7.45;;
44925;SDS011;30662;51.210;7.656;2023-05-25T14:25:35;14.07;;;6.57;;
44925;SDS011;30662;51.210;7.656;2023-05-25T14:28:00;13.10;;;7.40;;
44925;SDS011;30662;51.210;7.656;2023-05-25T14:30:26;13.23;;;7.50;;
44925;SDS011;30662;51.210;7.656;2023-05-25T14:32:52;13.50;;;7.57;;
44925;SDS011;30662;51.210;7.656;2023-05-25T14:35:18;12.38;;;6.50;;
44925;SDS011;30662;51.210;7.656;2023-05-25T14:37:44;12.65;;;6.45;;
44925;SDS011;30662;51.210;7.656;2023-05-25T14:40:10;11.10;;;7.40;;
44925;SDS011;30662;51.210;7.656;2023-05-25T14:42:37;11.23;;;6.57;;
44925;SDS011;30662;51.210;7.656;2023-05-25T14:45:03;13.52;;;7.28;;
44925;SDS011;30662;51.210;7.656;2023-05-25T14:47:29;11.98;;;7.55;;
44925;SDS011;30662;51.210;7.656;2023-05-25T14:49:55;13.30;;;6.88;;
44925;SDS011;30662;51.210;7.656;2023-05-25T14:52:21;12.80;;;7.38;;
44925;SDS011;30662;51.210;7.656;2023-05-25T14:54:46;13.63;;;7.75;;
44925;SDS011;30662;51.210;7.656;2023-05-25T14:57:12;9.45;;;7.13;;
44925;SDS011;30662;51.210;7.656;2023-05-25T14:59:40;13.27;;;7.53;;
44925;SDS011;30662;51.210;7.656;2023-05-25T15:02:07;11.75;;;6.15;;